Time;durP1;ratioP1;P1;durP2;ratioP2;P2;SDS_P1;SDS_P2;PMS_P1;PMS_P2;Temp;Humidity;BMP_temperature;BMP_pressure;BME280_temperature;BME280_humidity;BME280_pressure;Samples;Min_cycle;Max_cycle;Signal;HPM_P1;HPM_P2
2022/07/11 00:01:43;;;;;;;1999.90;999.90;;;15.40;99.90;;;;;;5086515;28;20040;-77
2022/07/11 00:04:08;;;;;;;1999.90;999.90;;;15.40;99.90;;;;;;5086821;28;20093;-78
2022/07/11 00:06:34;;;;;;;1999.90;999.90;;;15.40;99.90;;;;;;5086903;28;20044;-78
2022/07/11 00:09:00;;;;;;;1999.90;999.90;;;15.30;99.90;;;;;;5084786;28;20048;-78
2022/07/11 00:11:25;;;;;;;1999.90;999.90;;;15.40;99.90;;;;;;5070238;28;20050;-78
2022/07/11 00:13:51;;;;;;;1999.90;999.90;;;15.30;99.90;;;;;;5086855;28;20174;-78
2022/07/11 00:16:17;;;;;;;1999.90;999.90;;;15.30;99.90;;;;;;5076497;28;20043;-78
2022/07/11 00:18:42;;;;;;;1999.90;999.90;;;15.30;99.90;;;;;;5100782;28;20044;-79
2022/07/11 00:21:08;;;;;;;1999.90;999.90;;;15.20;99.90;;;;;;5071611;28;20040;-78
2022/07/11 00:23:34;;;;;;;1999.90;999.90;;;15.20;99.90;;;;;;5053458;28;20424;-79
2022/07/11 00:26:00;;;;;;;1999.90;999.90;;;15.20;99.90;;;;;;5052265;28;20085;-79
2022/07/11 00:28:26;;;;;;;1999.90;999.90;;;15.20;99.90;;;;;;5068534;28;20496;-79
2022/07/11 00:30:52;;;;;;;1999.90;999.90;;;15.20;99.90;;;;;;5087405;28;20413;-79
2022/07/11 00:33:18;;;;;;;1999.90;999.90;;;15.20;99.90;;;;;;5076747;28;20040;-79
2022/07/11 00:35:44;;;;;;;1999.90;999.90;;;15.20;99.90;;;;;;5068049;28;20040;-79
2022/07/11 00:38:10;;;;;;;1999.90;999.90;;;15.10;99.90;;;;;;5058005;28;20047;-79
2022/07/11 00:40:36;;;;;;;1999.90;999.90;;;15.10;99.90;;;;;;5068366;28;20052;-79
2022/07/11 00:43:03;;;;;;;1999.90;999.90;;;15.10;99.90;;;;;;5071854;28;20040;-79
2022/07/11 00:45:29;;;;;;;1999.90;999.90;;;15.10;99.90;;;;;;5054590;28;20409;-79
2022/07/11 00:47:58;;;;;;;1999.90;999.90;;;15.10;99.90;;;;;;5059709;28;20044;-79
2022/07/11 00:50:25;;;;;;;1999.90;999.90;;;15.10;99.90;;;;;;5045580;28;20077;-79
2022/07/11 00:52:56;;;;;;;1999.90;999.90;;;15.10;99.90;;;;;;5099599;28;20040;-79
2022/07/11 00:55:22;;;;;;;1999.90;999.90;;;15.10;99.90;;;;;;5058338;28;20528;-79
2022/07/11 00:57:51;;;;;;;1999.90;999.90;;;15.10;99.90;;;;;;5097468;28;20040;-79
2022/07/11 01:00:17;;;;;;;1999.90;999.90;;;15.10;99.90;;;;;;5076390;28;20441;-78
2022/07/11 01:02:43;;;;;;;1999.90;999.90;;;15.10;99.90;;;;;;5067639;28;20048;-79
2022/07/11 01:05:08;;;;;;;1999.90;999.90;;;15.10;99.90;;;;;;5062481;28;20035;-79
2022/07/11 01:07:34;;;;;;;1999.90;999.90;;;15.10;99.90;;;;;;5068543;28;20048;-79
2022/07/11 01:10:00;;;;;;;1999.90;999.90;;;15.10;99.90;;;;;;5070828;28;20036;-79
2022/07/11 01:12:26;;;;;;;1999.90;999.90;;;15.10;99.90;;;;;;5066285;28;20048;-79
2022/07/11 01:14:57;;;;;;;1999.90;999.90;;;15.00;99.90;;;;;;5086154;28;20102;-78
2022/07/11 01:17:23;;;;;;;1999.90;999.90;;;15.10;99.90;;;;;;5085291;28;20757;-78
2022/07/11 01:19:49;;;;;;;1999.90;999.90;;;15.10;99.90;;;;;;5084873;28;20039;-78
2022/07/11 01:22:17;;;;;;;1999.90;999.90;;;15.00;99.90;;;;;;5102231;28;20043;-78
2022/07/11 01:24:44;;;;;;;1999.90;999.90;;;15.00;99.90;;;;;;5069251;28;20048;-79
2022/07/11 01:27:11;;;;;;;1999.90;999.90;;;15.00;99.90;;;;;;5097643;28;20081;-79
2022/07/11 01:29:36;;;;;;;1999.90;999.90;;;15.00;99.90;;;;;;5065198;28;20406;-78
2022/07/11 01:32:02;;;;;;;1999.90;999.90;;;15.00;99.90;;;;;;5073006;28;20031;-78
2022/07/11 01:34:28;;;;;;;1999.90;999.90;;;15.10;99.90;;;;;;5084327;28;20097;-78
2022/07/11 01:36:54;;;;;;;1999.90;999.90;;;15.10;99.90;;;;;;5050660;28;20047;-78
2022/07/11 01:39:19;;;;;;;1999.90;999.90;;;15.10;99.90;;;;;;5059458;28;20398;-79
2022/07/11 01:41:45;;;;;;;1999.90;999.90;;;15.00;99.90;;;;;;5084808;28;20125;-78
2022/07/11 01:44:11;;;;;;;1999.90;999.90;;;15.00;99.90;;;;;;5051285;28;20533;-78
2022/07/11 01:46:36;;;;;;;1999.90;999.90;;;15.10;99.90;;;;;;5071068;28;20506;-79
2022/07/11 01:49:02;;;;;;;1999.90;999.90;;;15.00;99.90;;;;;;5066691;28;20506;-79
2022/07/11 01:51:28;;;;;;;1999.90;999.90;;;15.10;99.90;;;;;;5066726;28;20089;-78
2022/07/11 01:53:55;;;;;;;1999.90;999.90;;;15.00;99.90;;;;;;5086638;28;21350;-78
2022/07/11 01:56:22;;;;;;;1999.90;999.90;;;15.00;99.90;;;;;;5064807;28;20077;-78
2022/07/11 01:58:48;;;;;;;1999.90;999.90;;;15.00;99.90;;;;;;5098278;28;20101;-79
2022/07/11 02:01:14;;;;;;;1999.90;999.90;;;15.10;99.90;;;;;;5067573;28;20451;-79
2022/07/11 02:03:40;;;;;;;1999.90;999.90;;;15.10;99.90;;;;;;5054456;28;20042;-80
2022/07/11 02:06:06;;;;;;;1999.90;999.90;;;15.00;99.90;;;;;;5086185;28;20521;-80
2022/07/11 02:08:32;;;;;;;1999.90;999.90;;;15.10;99.90;;;;;;5055787;28;20131;-79
2022/07/11 02:10:57;;;;;;;1999.90;999.90;;;15.00;99.90;;;;;;5086955;28;20791;-79
2022/07/11 02:13:23;;;;;;;1999.90;999.90;;;15.00;99.90;;;;;;5048445;28;20043;-79
2022/07/11 02:15:50;;;;;;;1999.90;999.90;;;15.00;99.90;;;;;;5071944;28;20086;-79
2022/07/11 02:18:17;;;;;;;1999.90;999.90;;;15.00;99.90;;;;;;5105480;28;20036;-79
2022/07/11 02:20:45;;;;;;;1999.90;999.90;;;15.00;99.90;;;;;;5106645;28;20079;-79
2022/07/11 02:23:12;;;;;;;1999.90;999.90;;;15.00;99.90;;;;;;5105387;28;20086;-80
2022/07/11 02:25:38;;;;;;;1999.90;999.90;;;15.00;99.90;;;;;;5105026;28;20036;-80
2022/07/11 02:28:08;;;;;;;1999.90;999.90;;;15.00;99.90;;;;;;5083229;28;20040;-80
2022/07/11 02:30:37;;;;;;;1999.90;999.90;;;15.00;99.90;;;;;;5101814;28;20167;-80
2022/07/11 02:33:04;;;;;;;1999.90;999.90;;;15.00;99.90;;;;;;5088117;28;20039;-79
2022/07/11 02:35:29;;;;;;;1999.90;999.90;;;15.00;99.90;;;;;;5052020;28;20039;-79
2022/07/11 02:37:55;;;;;;;1999.90;999.90;;;15.10;99.90;;;;;;5068445;28;20028;-79
2022/07/11 02:40:21;;;;;;;1999.90;999.90;;;15.10;99.90;;;;;;5100295;28;20065;-79
2022/07/11 02:42:46;;;;;;;1999.90;999.90;;;15.10;99.90;;;;;;5081064;28;20112;-79
2022/07/11 02:45:12;;;;;;;1999.90;999.90;;;15.10;99.90;;;;;;5065761;28;20503;-79
2022/07/11 02:47:39;;;;;;;1999.90;999.90;;;15.10;99.90;;;;;;5071073;28;20040;-79
2022/07/11 02:50:10;;;;;;;1999.90;999.90;;;15.10;99.90;;;;;;5075986;28;20036;-79
2022/07/11 02:52:37;;;;;;;1999.90;999.90;;;15.10;99.90;;;;;;5074773;28;20049;-79
2022/07/11 02:55:03;;;;;;;1999.90;999.90;;;15.10;99.90;;;;;;5075105;28;20394;-78
2022/07/11 02:57:29;;;;;;;1999.90;999.90;;;15.10;99.90;;;;;;5070292;28;20050;-78
2022/07/11 02:59:54;;;;;;;1999.90;999.90;;;15.10;99.90;;;;;;5062326;28;20090;-79
2022/07/11 03:02:20;;;;;;;1999.90;999.90;;;15.10;99.90;;;;;;5067077;28;20072;-79
2022/07/11 03:04:46;;;;;;;1999.90;999.90;;;15.10;99.90;;;;;;5061992;28;20080;-79
2022/07/11 03:07:12;;;;;;;1999.90;999.90;;;15.10;99.90;;;;;;5068830;28;20052;-79
2022/07/11 03:09:37;;;;;;;1999.90;999.90;;;15.00;99.90;;;;;;5050433;28;20048;-79
2022/07/11 03:12:03;;;;;;;1999.90;999.90;;;15.10;99.90;;;;;;5062874;28;20119;-79
2022/07/11 03:14:29;;;;;;;1999.90;999.90;;;15.00;99.90;;;;;;5067848;28;20035;-79
2022/07/11 03:16:55;;;;;;;1999.90;999.90;;;15.10;99.90;;;;;;5069422;28;20461;-79
2022/07/11 03:19:21;;;;;;;1999.90;999.90;;;15.10;99.90;;;;;;5066755;28;20633;-79
2022/07/11 03:21:46;;;;;;;1999.90;999.90;;;15.10;99.90;;;;;;5067372;28;20491;-79
2022/07/11 03:24:12;;;;;;;1999.90;999.90;;;15.10;99.90;;;;;;5067883;28;20148;-79
2022/07/11 03:26:38;;;;;;;1999.90;999.90;;;15.10;99.90;;;;;;5073379;28;20073;-79
2022/07/11 03:29:04;;;;;;;1999.90;999.90;;;15.10;99.90;;;;;;5060044;28;20524;-79
2022/07/11 03:31:30;;;;;;;1999.90;999.90;;;15.10;99.90;;;;;;5068921;28;20570;-79
2022/07/11 03:33:55;;;;;;;1999.90;999.90;;;15.10;99.90;;;;;;5051298;28;20044;-79
2022/07/11 03:36:21;;;;;;;1999.90;999.90;;;15.10;99.90;;;;;;5050581;28;20146;-79
2022/07/11 03:38:47;;;;;;;1999.90;999.90;;;15.10;99.90;;;;;;5067609;28;20456;-79
2022/07/11 03:41:13;;;;;;;1999.90;999.90;;;15.10;99.90;;;;;;5052728;28;20055;-79
2022/07/11 03:43:38;;;;;;;1999.90;999.90;;;15.10;99.90;;;;;;5050914;28;20040;-78
2022/07/11 03:46:06;;;;;;;1999.90;999.90;;;15.20;99.90;;;;;;5067514;28;20426;-79
2022/07/11 03:48:32;;;;;;;1999.90;999.90;;;15.20;99.90;;;;;;5051982;28;20033;-79
2022/07/11 03:50:57;;;;;;;1999.90;999.90;;;15.20;99.90;;;;;;5050920;28;20066;-78
2022/07/11 03:53:23;;;;;;;1999.90;999.90;;;15.20;99.90;;;;;;5049827;28;20231;-78
2022/07/11 03:55:48;;;;;;;1999.90;999.90;;;15.20;99.90;;;;;;5061917;28;20115;-78
2022/07/11 03:58:14;;;;;;;1999.90;999.90;;;15.20;99.90;;;;;;5069623;28;20516;-78
2022/07/11 04:00:40;;;;;;;1999.90;999.90;;;15.20;99.90;;;;;;5066129;28;20402;-78
2022/07/11 04:03:06;;;;;;;1999.90;999.90;;;15.20;99.90;;;;;;5047792;28;20506;-78
2022/07/11 04:05:31;;;;;;;1999.90;999.90;;;15.10;99.90;;;;;;5066814;28;20052;-78
2022/07/11 04:07:57;;;;;;;1999.90;999.90;;;15.20;99.90;;;;;;5046356;28;20045;-78
2022/07/11 04:10:23;;;;;;;1999.90;999.90;;;15.20;99.90;;;;;;5047322;28;20102;-78
2022/07/11 04:12:49;;;;;;;1999.90;999.90;;;15.20;99.90;;;;;;5071171;28;20464;-78
2022/07/11 04:15:14;;;;;;;1999.90;999.90;;;15.20;99.90;;;;;;5049162;28;20040;-78
2022/07/11 04:17:40;;;;;;;1999.90;999.90;;;15.20;99.90;;;;;;5066787;28;20097;-78
2022/07/11 04:20:07;;;;;;;1999.90;999.90;;;15.20;99.90;;;;;;5051511;28;20648;-78
2022/07/11 04:22:33;;;;;;;1999.90;999.90;;;15.20;99.90;;;;;;5068602;28;20421;-78
2022/07/11 04:24:58;;;;;;;1999.90;999.90;;;15.20;99.90;;;;;;5062123;28;20105;-78
2022/07/11 04:27:25;;;;;;;1999.90;999.90;;;15.20;99.90;;;;;;5067682;28;20843;-78
2022/07/11 04:29:51;;;;;;;1999.90;999.90;;;15.20;99.90;;;;;;5064205;28;20040;-78
2022/07/11 04:32:17;;;;;;;1999.90;999.90;;;15.20;99.90;;;;;;5068801;28;20040;-78
2022/07/11 04:34:42;;;;;;;1999.90;999.90;;;15.20;99.90;;;;;;5049704;28;20082;-78
2022/07/11 04:37:08;;;;;;;1999.90;999.90;;;15.20;99.90;;;;;;5067842;28;20040;-78
2022/07/11 04:39:34;;;;;;;1999.90;999.90;;;15.20;99.90;;;;;;5066526;28;20493;-78
2022/07/11 04:42:00;;;;;;;1999.90;999.90;;;15.30;99.90;;;;;;5050483;28;20559;-78
2022/07/11 04:44:29;;;;;;;1999.90;999.90;;;15.30;99.90;;;;;;5048744;28;20405;-78
2022/07/11 04:46:55;;;;;;;1999.90;999.90;;;15.30;99.90;;;;;;5068166;28;20047;-78
2022/07/11 04:49:21;;;;;;;1999.90;999.90;;;15.30;99.90;;;;;;5067136;28;20044;-78
2022/07/11 04:51:46;;;;;;;1999.90;999.90;;;15.30;99.90;;;;;;5048170;28;20083;-78
2022/07/11 04:54:12;;;;;;;1999.90;999.90;;;15.40;99.90;;;;;;5049479;28;20036;-78
2022/07/11 04:56:38;;;;;;;1999.90;999.90;;;15.40;99.90;;;;;;5051356;28;20070;-78
2022/07/11 04:59:07;;;;;;;1999.90;999.90;;;15.40;99.90;;;;;;5063454;28;20032;-78
2022/07/11 05:01:33;;;;;;;1999.90;999.90;;;15.40;99.90;;;;;;5072820;28;20044;-78
2022/07/11 05:03:58;;;;;;;1999.90;999.90;;;15.50;99.90;;;;;;5045439;28;20040;-78
2022/07/11 05:06:25;;;;;;;1999.90;999.90;;;15.40;99.90;;;;;;5050359;28;20040;-78
2022/07/11 05:08:51;;;;;;;1999.90;999.90;;;15.50;99.90;;;;;;5048205;28;20481;-78
2022/07/11 05:11:17;;;;;;;1999.90;999.90;;;15.40;99.90;;;;;;5050530;28;20041;-78
2022/07/11 05:13:42;;;;;;;1999.90;999.90;;;15.40;99.90;;;;;;5047771;28;20532;-78
2022/07/11 05:16:08;;;;;;;1999.90;999.90;;;15.50;99.90;;;;;;5063731;28;20040;-78
2022/07/11 05:18:33;;;;;;;1999.90;999.90;;;15.40;99.90;;;;;;5041435;28;20037;-78
2022/07/11 05:20:59;;;;;;;1999.90;999.90;;;15.50;99.90;;;;;;5048941;28;20040;-78
2022/07/11 05:23:25;;;;;;;1999.90;999.90;;;15.50;99.90;;;;;;5047414;28;20095;-78
2022/07/11 05:25:51;;;;;;;1999.90;999.90;;;15.50;99.90;;;;;;5062323;28;20072;-79
2022/07/11 05:28:16;;;;;;;1999.90;999.90;;;15.60;99.90;;;;;;5067608;28;20044;-78
2022/07/11 05:30:42;;;;;;;1999.90;999.90;;;15.60;99.90;;;;;;5049851;28;20048;-79
2022/07/11 05:33:07;;;;;;;1999.90;999.90;;;15.60;99.90;;;;;;5060773;28;20554;-78
2022/07/11 05:35:33;;;;;;;1999.90;999.90;;;15.70;99.90;;;;;;5058995;28;20029;-78
2022/07/11 05:37:59;;;;;;;1999.90;999.90;;;15.70;99.90;;;;;;5048849;28;20052;-78
2022/07/11 05:40:24;;;;;;;1999.90;999.90;;;15.70;99.90;;;;;;5049568;28;20052;-79
2022/07/11 05:42:50;;;;;;;1999.90;999.90;;;15.70;99.90;;;;;;5049779;28;20049;-78
2022/07/11 05:45:15;;;;;;;1999.90;999.90;;;15.80;99.90;;;;;;5069352;28;20044;-78
2022/07/11 05:47:41;;;;;;;1999.90;999.90;;;15.80;99.90;;;;;;5062598;28;20037;-79
2022/07/11 05:50:07;;;;;;;1999.90;999.90;;;15.80;99.90;;;;;;5048983;28;20041;-79
2022/07/11 05:52:33;;;;;;;1999.90;999.90;;;15.80;99.90;;;;;;5049001;28;20047;-78
2022/07/11 05:54:59;;;;;;;1999.90;999.90;;;15.80;99.90;;;;;;5062528;28;20453;-78
2022/07/11 05:57:25;;;;;;;1999.90;999.90;;;15.80;99.90;;;;;;5048261;28;20446;-79
2022/07/11 05:59:50;;;;;;;1999.90;999.90;;;15.90;99.90;;;;;;5050306;28;20040;-78
2022/07/11 06:02:16;;;;;;;1999.90;999.90;;;15.90;99.90;;;;;;5062829;28;20497;-79
2022/07/11 06:04:44;;;;;;;1999.90;999.90;;;15.90;99.90;;;;;;5047109;28;20041;-78
2022/07/11 06:07:10;;;;;;;1999.90;999.90;;;16.00;99.90;;;;;;5064679;28;20475;-79
2022/07/11 06:09:36;;;;;;;1999.90;999.90;;;16.00;99.90;;;;;;5045700;28;20076;-78
2022/07/11 06:12:02;;;;;;;1999.90;999.90;;;16.00;99.90;;;;;;5058101;28;20116;-78
2022/07/11 06:14:28;;;;;;;1999.90;999.90;;;16.10;99.90;;;;;;5066683;28;20124;-78
2022/07/11 06:16:53;;;;;;;1999.90;999.90;;;16.20;99.90;;;;;;5075887;28;20493;-79
2022/07/11 06:19:19;;;;;;;1999.90;999.90;;;16.20;99.90;;;;;;5052560;28;20043;-78
2022/07/11 06:21:45;;;;;;;1999.90;999.90;;;16.20;99.90;;;;;;5054556;28;20413;-79
2022/07/11 06:24:11;;;;;;;1999.90;999.90;;;16.10;99.90;;;;;;5049474;28;20049;-79
2022/07/11 06:26:36;;;;;;;1999.90;999.90;;;16.20;99.90;;;;;;5059971;28;20043;-79
2022/07/11 06:29:02;;;;;;;1999.90;999.90;;;16.10;99.90;;;;;;5050963;28;20129;-79
2022/07/11 06:31:28;;;;;;;1999.90;999.90;;;16.20;99.90;;;;;;5049841;28;20044;-80
2022/07/11 06:33:57;;;;;;;1999.90;999.90;;;16.10;99.90;;;;;;5069022;28;20123;-80
2022/07/11 06:36:26;;;;;;;1999.90;999.90;;;16.20;99.90;;;;;;5060910;28;20040;-80
2022/07/11 06:38:53;;;;;;;1999.90;999.90;;;16.20;99.90;;;;;;5053958;28;20033;-81
2022/07/11 06:41:18;;;;;;;1999.90;999.90;;;16.30;99.90;;;;;;5070019;28;20049;-80
2022/07/11 06:43:47;;;;;;;1999.90;999.90;;;16.30;99.90;;;;;;5061080;28;20047;-81
2022/07/11 06:46:14;;;;;;;1999.90;999.90;;;16.40;99.90;;;;;;5066328;28;20048;-80
2022/07/11 06:48:39;;;;;;;1999.90;999.90;;;16.40;99.90;;;;;;5060446;28;20072;-80
2022/07/11 06:51:05;;;;;;;1999.90;999.90;;;16.40;99.90;;;;;;5070180;28;20126;-80
2022/07/11 06:53:31;;;;;;;1999.90;999.90;;;16.40;99.90;;;;;;5069494;28;20127;-80
2022/07/11 06:55:57;;;;;;;1999.90;999.90;;;16.40;99.90;;;;;;5057055;28;20078;-80
2022/07/11 06:58:34;;;;;;;1999.90;999.90;;;16.40;99.90;;;;;;5061808;28;20056;-80
2022/07/11 07:01:05;;;;;;;1999.90;999.90;;;16.50;99.90;;;;;;5069788;28;20426;-80
2022/07/11 07:03:35;;;;;;;1999.90;999.90;;;16.50;99.90;;;;;;5054230;28;20045;-81
2022/07/11 07:06:01;;;;;;;1999.90;999.90;;;16.60;99.90;;;;;;5067935;28;20514;-81
2022/07/11 07:08:29;;;;;;;1999.90;999.90;;;16.50;99.90;;;;;;5053131;28;20449;-81
2022/07/11 07:10:55;;;;;;;1999.90;999.90;;;16.50;99.90;;;;;;5049345;28;20048;-80
2022/07/11 07:13:23;;;;;;;1999.90;999.90;;;16.50;99.90;;;;;;5052533;28;20456;-80
2022/07/11 07:15:50;;;;;;;1999.90;999.90;;;16.40;99.90;;;;;;5060394;28;20043;-80
2022/07/11 07:18:16;;;;;;;1999.90;999.90;;;16.50;99.90;;;;;;5040030;28;20280;-80
2022/07/11 07:20:41;;;;;;;1999.90;999.90;;;16.60;99.90;;;;;;5066134;28;20406;-80
2022/07/11 07:23:07;;;;;;;1999.90;999.90;;;16.70;99.90;;;;;;5046855;28;20044;-79
2022/07/11 07:25:33;;;;;;;1999.90;999.90;;;16.90;99.90;;;;;;5063280;28;20048;-79
2022/07/11 07:27:59;;;;;;;1999.90;999.90;;;17.10;99.90;;;;;;5048876;28;20399;-80
2022/07/11 07:30:25;;;;;;;1999.90;999.90;;;17.30;99.90;;;;;;5060924;28;20040;-80
2022/07/11 07:32:50;;;;;;;1999.90;999.90;;;17.40;99.90;;;;;;5070114;28;20529;-80
2022/07/11 07:35:16;;;;;;;1999.90;999.90;;;17.60;99.90;;;;;;5069201;28;20107;-80
2022/07/11 07:37:41;;;;;;;1999.90;999.90;;;17.80;99.90;;;;;;5051207;28;20467;-79
2022/07/11 07:40:07;;;;;;;1999.90;999.90;;;18.00;99.90;;;;;;5054189;28;20517;-79
2022/07/11 07:42:33;;;;;;;1999.90;999.90;;;18.20;99.90;;;;;;5090530;28;20097;-80
2022/07/11 07:44:59;;;;;;;1999.90;999.90;;;18.40;99.90;;;;;;5063368;28;20048;-79
2022/07/11 07:47:25;;;;;;;1999.90;999.90;;;18.80;99.90;;;;;;5071792;28;20050;-79
2022/07/11 07:49:50;;;;;;;1999.90;999.90;;;19.10;99.90;;;;;;5054570;28;20083;-80
2022/07/11 07:52:17;;;;;;;1999.90;999.90;;;19.30;99.90;;;;;;5072366;28;20036;-79
2022/07/11 07:54:42;;;;;;;1999.90;999.90;;;19.10;99.90;;;;;;5072128;28;20047;-80
2022/07/11 07:57:08;;;;;;;1999.90;999.90;;;18.80;99.90;;;;;;5063925;28;20048;-80
2022/07/11 07:59:34;;;;;;;1999.90;999.90;;;18.50;99.90;;;;;;5055411;28;20127;-79
2022/07/11 08:01:59;;;;;;;1999.90;999.90;;;18.30;99.90;;;;;;5074948;28;20071;-79
2022/07/11 08:04:25;;;;;;;1999.90;999.90;;;18.40;99.90;;;;;;5073607;28;20042;-79
2022/07/11 08:06:51;;;;;;;1999.90;999.90;;;18.60;99.90;;;;;;5056614;28;20044;-79
2022/07/11 08:09:16;;;;;;;1999.90;999.90;;;18.60;99.90;;;;;;5055470;28;20482;-79
2022/07/11 08:11:42;;;;;;;1999.90;999.90;;;18.80;99.90;;;;;;5083032;28;20044;-79
2022/07/11 08:14:08;;;;;;;1999.90;999.90;;;19.40;99.90;;;;;;5071675;28;20040;-79
2022/07/11 08:16:34;;;;;;;1999.90;999.90;;;19.40;99.90;;;;;;5105526;28;20040;-79
2022/07/11 08:19:01;;;;;;;1999.90;999.90;;;19.30;99.90;;;;;;5065606;28;20056;-79
2022/07/11 08:21:28;;;;;;;1999.90;999.90;;;19.10;99.90;;;;;;5088408;28;20048;-79
2022/07/11 08:23:54;;;;;;;1999.90;999.90;;;18.80;99.90;;;;;;5049124;28;20028;-78
2022/07/11 08:26:20;;;;;;;1999.90;999.90;;;18.60;99.90;;;;;;5050138;28;20070;-79
2022/07/11 08:28:46;;;;;;;1999.90;999.90;;;18.30;99.90;;;;;;5038638;28;20056;-78
2022/07/11 08:31:12;;;;;;;1999.90;999.90;;;18.20;99.90;;;;;;5073666;28;20036;-79
2022/07/11 08:33:38;;;;;;;1999.90;999.90;;;18.10;99.90;;;;;;5054606;28;20545;-79
2022/07/11 08:36:04;;;;;;;1999.90;999.90;;;18.20;99.90;;;;;;5054735;28;20036;-78
2022/07/11 08:38:29;;;;;;;1999.90;999.90;;;19.20;99.90;;;;;;5058797;28;20493;-79
2022/07/11 08:40:55;;;;;;;1999.90;999.90;;;19.60;99.90;;;;;;5049942;28;20080;-78
2022/07/11 08:43:29;;;;;;;1999.90;999.90;;;19.50;99.90;;;;;;5049754;28;20044;-79
2022/07/11 08:45:55;;;;;;;1999.90;999.90;;;19.20;99.90;;;;;;5051009;28;20048;-79
2022/07/11 08:48:22;;;;;;;1999.90;999.90;;;19.10;99.90;;;;;;5052969;28;20488;-78
2022/07/11 08:50:49;;;;;;;1999.90;999.90;;;19.00;99.90;;;;;;5051761;28;20083;-78
2022/07/11 08:53:15;;;;;;;1999.90;999.90;;;19.00;99.90;;;;;;5052297;28;20044;-78
2022/07/11 08:55:42;;;;;;;1999.90;999.90;;;19.00;99.90;;;;;;5034568;28;20049;-78
2022/07/11 08:58:08;;;;;;;1999.90;999.90;;;18.80;99.90;;;;;;5046869;28;20039;-78
2022/07/11 09:00:35;;;;;;;1999.90;999.90;;;18.80;99.90;;;;;;5039877;28;20057;-76
2022/07/11 09:03:02;;;;;;;1999.90;999.90;;;18.70;99.90;;;;;;5053291;28;20047;-78
2022/07/11 09:05:30;;;;;;;1999.90;999.90;;;18.50;99.90;;;;;;5037839;28;20041;-78
2022/07/11 09:07:56;;;;;;;1999.90;999.90;;;18.40;99.90;;;;;;5049262;28;20063;-78
2022/07/11 09:10:22;;;;;;;1999.90;999.90;;;18.40;99.90;;;;;;5057421;28;20041;-78
2022/07/11 09:13:06;;;;;;;1999.90;999.90;;;18.50;99.90;;;;;;5060083;28;20131;-78
2022/07/11 09:15:40;;;;;;;1999.90;999.90;;;18.60;99.90;;;;;;5047605;28;20490;-78
2022/07/11 09:18:29;;;;;;;1999.90;999.90;;;18.50;99.90;;;;;;5064034;28;20048;-78
2022/07/11 09:26:42;;;;;;;1999.90;999.90;;;18.30;99.90;;;;;;5060034;28;20048;-78
2022/07/11 09:29:27;;;;;;;1999.90;999.90;;;18.30;99.90;;;;;;5055380;28;20045;-78
2022/07/11 09:31:53;;;;;;;1999.90;999.90;;;18.30;99.90;;;;;;5060064;28;20421;-77
2022/07/11 09:34:20;;;;;;;1999.90;999.90;;;18.50;99.90;;;;;;5046522;28;20036;-78
2022/07/11 09:36:51;;;;;;;1999.90;999.90;;;18.60;99.90;;;;;;5040514;28;20398;-78
2022/07/11 09:39:18;;;;;;;1999.90;999.90;;;18.70;99.90;;;;;;5063324;28;20577;-77
2022/07/11 09:41:46;;;;;;;1999.90;999.90;;;18.80;99.90;;;;;;5051819;28;20398;-77
2022/07/11 09:44:21;;;;;;;1999.90;999.90;;;18.80;99.90;;;;;;5066372;28;20067;-77
2022/07/11 09:46:49;;;;;;;1999.90;999.90;;;18.80;99.90;;;;;;5043011;28;20048;-77
2022/07/11 09:49:28;;;;;;;1999.90;999.90;;;18.80;99.90;;;;;;5051823;28;20128;-78
2022/07/11 09:51:53;;;;;;;1999.90;999.90;;;18.80;99.90;;;;;;5049967;28;20130;-77
2022/07/11 09:54:19;;;;;;;1999.90;999.90;;;18.90;99.90;;;;;;5044276;28;20036;-77
2022/07/11 09:56:51;;;;;;;1999.90;999.90;;;18.80;99.90;;;;;;5052108;28;20486;-77
2022/07/11 09:59:17;;;;;;;1999.90;999.90;;;18.70;99.90;;;;;;5047816;28;20045;-78
2022/07/11 10:01:43;;;;;;;1999.90;999.90;;;18.60;99.90;;;;;;5069808;28;20427;-77
2022/07/11 10:04:10;;;;;;;1999.90;999.90;;;18.50;99.90;;;;;;5036716;28;20381;-78
2022/07/11 10:06:36;;;;;;;1999.90;999.90;;;18.50;99.90;;;;;;5050041;28;20037;-77
2022/07/11 10:09:04;;;;;;;1999.90;999.90;;;18.60;99.90;;;;;;5059589;28;20048;-78
2022/07/11 10:11:31;;;;;;;1999.90;999.90;;;18.60;99.90;;;;;;5054019;28;20409;-78
2022/07/11 10:13:59;;;;;;;1999.90;999.90;;;18.60;99.90;;;;;;5070916;28;20433;-77
2022/07/11 10:16:59;;;;;;;1999.90;999.90;;;18.60;99.90;;;;;;5071061;28;20036;-78
2022/07/11 10:19:51;;;;;;;1999.90;999.90;;;18.60;99.90;;;;;;5057483;28;20041;-77
2022/07/11 10:22:49;;;;;;;1999.90;999.90;;;18.80;99.90;;;;;;5070384;28;20048;-78
2022/07/11 10:25:32;;;;;;;1999.90;999.90;;;19.00;99.90;;;;;;5064501;28;20059;-78
2022/07/11 10:28:07;;;;;;;;;;;19.20;99.90;;;;;;5070711;28;20094;-77
2022/07/11 10:30:50;;;;;;;1999.90;999.90;;;19.30;99.90;;;;;;5099221;28;19916;-77
2022/07/11 10:33:17;;;;;;;1999.90;999.90;;;19.50;99.90;;;;;;5056866;28;20041;-77
2022/07/11 10:35:49;;;;;;;1999.90;999.90;;;19.60;99.90;;;;;;5081548;28;20067;-78
2022/07/11 10:38:16;;;;;;;1999.90;999.90;;;19.70;99.90;;;;;;5060608;28;20041;-77
2022/07/11 10:40:52;;;;;;;1999.90;999.90;;;19.70;99.90;;;;;;5063908;28;20429;-77
2022/07/11 10:43:40;;;;;;;1999.90;999.90;;;19.70;99.90;;;;;;5049099;28;20044;-77
2022/07/11 10:46:21;;;;;;;1999.90;999.90;;;19.70;99.90;;;;;;5068914;28;20053;-77
2022/07/11 10:49:01;;;;;;;1999.90;999.90;;;19.80;99.90;;;;;;5056915;28;20086;-77
2022/07/11 10:51:47;;;;;;;1999.90;999.90;;;20.00;99.90;;;;;;5055303;28;20127;-77
2022/07/11 10:54:41;;;;;;;1999.90;999.90;;;20.30;99.90;;;;;;5083971;28;20162;-77
2022/07/11 10:57:22;;;;;;;1999.90;999.90;;;20.40;99.90;;;;;;5069575;28;20564;-77
2022/07/11 11:00:10;;;;;;;1999.90;999.90;;;20.50;99.90;;;;;;5062544;28;20055;-77
2022/07/11 11:03:02;;;;;;;1999.90;999.90;;;20.40;99.90;;;;;;5074493;28;20048;-77
2022/07/11 11:05:47;;;;;;;1999.90;999.90;;;20.40;99.90;;;;;;5060575;28;20044;-77
2022/07/11 11:08:40;;;;;;;1999.90;999.90;;;20.30;99.90;;;;;;5049673;28;20141;-77
2022/07/11 11:11:19;;;;;;;1999.90;999.90;;;20.30;99.90;;;;;;5060965;28;20097;-77
2022/07/11 11:13:44;;;;;;;1999.90;999.90;;;20.10;99.90;;;;;;5071210;28;20444;-77
2022/07/11 11:16:24;;;;;;;1999.90;999.90;;;20.00;99.90;;;;;;5053755;28;20052;-77
2022/07/11 11:18:50;;;;;;;1999.90;999.90;;;19.90;99.90;;;;;;5063820;28;20456;-77
2022/07/11 11:21:19;;;;;;;1999.90;999.90;;;19.80;99.90;;;;;;5049679;28;20028;-77
2022/07/11 11:23:59;;;;;;;1999.90;999.90;;;19.80;99.90;;;;;;5052950;28;20056;-77
2022/07/11 11:26:46;;;;;;;1999.90;999.90;;;19.80;99.90;;;;;;5073840;28;20047;-76
2022/07/11 11:29:24;;;;;;;1999.90;999.90;;;20.00;99.90;;;;;;5062327;28;20043;-77
2022/07/11 11:31:52;;;;;;;1999.90;999.90;;;20.00;99.90;;;;;;5059660;28;20076;-76
2022/07/11 11:34:18;;;;;;;1999.90;999.90;;;19.90;99.90;;;;;;5044138;28;20127;-77
2022/07/11 11:36:51;;;;;;;1999.90;999.90;;;19.90;99.90;;;;;;5054164;28;20054;-77
2022/07/11 11:39:30;;;;;;;1999.90;999.90;;;19.80;99.90;;;;;;5059446;28;20037;-76
2022/07/11 11:42:22;;;;;;;1999.90;999.90;;;19.80;99.90;;;;;;5050525;28;20083;-77
2022/07/11 11:44:58;;;;;;;1999.90;999.90;;;19.90;99.90;;;;;;5062708;28;20084;-75
2022/07/11 11:47:25;;;;;;;1999.90;999.90;;;20.00;99.90;;;;;;5074068;28;20131;-75
2022/07/11 11:49:50;;;;;;;1999.90;999.90;;;20.00;99.90;;;;;;5054594;28;20397;-75
2022/07/11 11:52:17;;;;;;;1999.90;999.90;;;20.00;99.90;;;;;;5071807;28;20049;-75
2022/07/11 11:54:45;;;;;;;1999.90;999.90;;;20.00;99.90;;;;;;5060954;28;20083;-75
2022/07/11 11:57:11;;;;;;;1999.90;999.90;;;20.00;99.90;;;;;;5058277;28;20556;-75
2022/07/11 11:59:38;;;;;;;1999.90;999.90;;;20.00;99.90;;;;;;5058494;28;20031;-75
2022/07/11 12:02:04;;;;;;;1999.90;999.90;;;20.00;99.90;;;;;;5072946;28;20418;-75
2022/07/11 12:04:32;;;;;;;1999.90;999.90;;;20.00;99.90;;;;;;5040495;28;20040;-75
2022/07/11 12:06:59;;;;;;;1999.90;999.90;;;20.00;99.90;;;;;;5066329;28;20391;-75
2022/07/11 12:14:54;;;;;;;1999.90;999.90;;;20.10;99.90;;;;;;5066514;28;20178;-75